createdAt,value
2023-05-02T00:02:14.946Z,12.70
2023-05-02T00:04:41.879Z,12.70
2023-05-02T00:07:08.840Z,12.70
2023-05-02T00:09:35.790Z,12.60
2023-05-02T00:12:02.762Z,12.60
2023-05-02T00:14:29.599Z,12.60
2023-05-02T00:16:56.563Z,12.60
2023-05-02T00:19:23.485Z,12.60
2023-05-02T00:21:50.449Z,12.50
2023-05-02T00:24:20.481Z,12.50
2023-05-02T00:26:47.696Z,12.50
2023-05-02T00:29:14.558Z,12.50
2023-05-02T00:31:41.643Z,12.60
2023-05-02T00:34:08.583Z,12.60
2023-05-02T00:36:35.472Z,12.60
2023-05-02T00:39:02.343Z,12.70
2023-05-02T00:41:29.218Z,12.70
2023-05-02T00:43:56.062Z,12.70
2023-05-02T00:46:23.012Z,12.70
2023-05-02T00:48:49.892Z,12.70
2023-05-02T00:51:16.946Z,12.70
2023-05-02T00:53:44.042Z,12.70
2023-05-02T00:56:10.977Z,12.70
2023-05-02T00:58:41.511Z,12.60
2023-05-02T01:01:12.595Z,12.60
2023-05-02T01:03:39.640Z,12.50
2023-05-02T01:06:20.194Z,12.50
2023-05-02T01:09:07.498Z,12.50
2023-05-02T01:11:40.082Z,12.40
2023-05-02T01:14:06.941Z,12.40
2023-05-02T01:16:33.907Z,12.30
2023-05-02T01:19:00.899Z,12.30
2023-05-02T01:21:28.179Z,12.30
2023-05-02T01:23:55.263Z,12.30
2023-05-02T01:26:41.293Z,12.30
2023-05-02T01:29:08.791Z,12.20
2023-05-02T01:31:36.838Z,12.20
2023-05-02T01:34:04.802Z,12.20
2023-05-02T01:36:32.727Z,12.20
2023-05-02T01:39:00.529Z,12.30
2023-05-02T01:41:27.856Z,12.30
2023-05-02T01:43:58.999Z,12.30
2023-05-02T01:46:33.169Z,12.30
2023-05-02T01:49:02.147Z,12.30
2023-05-02T01:51:31.950Z,12.40
2023-05-02T01:53:59.232Z,12.40
2023-05-02T01:56:26.244Z,12.40
2023-05-02T01:58:53.300Z,12.40
2023-05-02T02:01:21.006Z,12.40
2023-05-02T02:03:47.919Z,12.50
2023-05-02T02:06:14.861Z,12.50
2023-05-02T02:08:41.809Z,12.40
2023-05-02T02:11:12.109Z,12.30
2023-05-02T02:13:39.914Z,12.20
2023-05-02T02:16:07.329Z,12.10
2023-05-02T02:18:35.884Z,12.10
2023-05-02T02:21:02.806Z,12.10
2023-05-02T02:23:29.949Z,12.10
2023-05-02T02:25:57.315Z,12.20
2023-05-02T02:28:24.208Z,12.30
2023-05-02T02:30:51.341Z,12.30
2023-05-02T02:33:18.623Z,12.30
2023-05-02T02:35:48.437Z,12.30
2023-05-02T02:38:35.582Z,12.30
2023-05-02T02:41:07.116Z,12.30
2023-05-02T02:43:34.333Z,12.30
2023-05-02T02:46:27.604Z,12.30
2023-05-02T02:49:14.798Z,12.20
2023-05-02T02:51:46.406Z,12.10
2023-05-02T02:54:32.143Z,12.10
2023-05-02T02:57:02.322Z,12.20
2023-05-02T02:59:29.828Z,12.20
2023-05-02T03:01:59.539Z,12.20
2023-05-02T03:04:26.431Z,12.20
2023-05-02T03:06:53.342Z,12.20
2023-05-02T03:09:20.303Z,12.20
2023-05-02T03:11:49.141Z,12.20
2023-05-02T03:14:16.133Z,12.20
2023-05-02T03:16:43.230Z,12.20
2023-05-02T03:19:14.817Z,12.20
2023-05-02T03:21:41.901Z,12.20
2023-05-02T03:24:17.176Z,12.20
2023-05-02T03:26:47.829Z,12.20
2023-05-02T03:29:16.905Z,12.20
2023-05-02T03:31:44.015Z,12.20
2023-05-02T03:34:12.568Z,12.20
2023-05-02T03:36:39.911Z,12.30
2023-05-02T03:39:07.121Z,12.20
2023-05-02T03:41:35.043Z,12.30
2023-05-02T03:44:07.070Z,12.20
2023-05-02T03:46:34.443Z,12.30
2023-05-02T03:49:03.828Z,12.30
2023-05-02T03:51:32.131Z,12.30
2023-05-02T03:53:59.144Z,12.30
2023-05-02T03:56:26.090Z,12.30
2023-05-02T03:59:05.638Z,12.30
2023-05-02T04:01:32.713Z,12.30
2023-05-02T04:04:01.424Z,12.30
2023-05-02T04:06:33.445Z,12.30
2023-05-02T04:09:04.383Z,12.40
2023-05-02T04:11:38.627Z,12.40
2023-05-02T04:14:07.238Z,12.30
2023-05-02T04:16:34.804Z,12.40
2023-05-02T04:19:01.994Z,12.40
2023-05-02T04:21:29.142Z,12.30
2023-05-02T04:23:56.162Z,12.30
2023-05-02T04:26:23.232Z,12.20
2023-05-02T04:28:57.331Z,12.20
2023-05-02T04:31:24.411Z,12.20
2023-05-02T04:33:52.226Z,12.20
2023-05-02T04:36:24.198Z,12.20
2023-05-02T04:38:51.291Z,12.10
2023-05-02T04:41:19.103Z,12.20
2023-05-02T04:43:52.483Z,12.20
2023-05-02T04:46:19.573Z,12.10
2023-05-02T04:48:46.779Z,12.10
2023-05-02T04:51:16.256Z,12.00
2023-05-02T04:53:45.828Z,12.10
2023-05-02T04:56:13.034Z,12.10
2023-05-02T04:58:40.152Z,12.10
2023-05-02T05:01:09.424Z,12.00
2023-05-02T05:03:37.153Z,12.00
2023-05-02T05:06:05.538Z,12.00
2023-05-02T05:08:33.888Z,11.90
2023-05-02T05:11:01.501Z,11.90
2023-05-02T05:13:28.678Z,11.90
2023-05-02T05:15:56.031Z,11.80
2023-05-02T05:18:27.308Z,11.70
2023-05-02T05:20:54.607Z,11.70
2023-05-02T05:23:21.821Z,11.60
2023-05-02T05:25:48.833Z,11.50
2023-05-02T05:28:18.919Z,11.50
2023-05-02T05:30:46.862Z,11.60
2023-05-02T05:33:19.446Z,11.60
2023-05-02T05:35:46.753Z,11.50
2023-05-02T05:38:13.618Z,11.50
2023-05-02T05:40:43.839Z,11.50
2023-05-02T05:43:11.841Z,11.50
2023-05-02T05:45:39.739Z,11.50
2023-05-02T05:48:07.579Z,11.40
2023-05-02T05:50:40.621Z,11.50
2023-05-02T05:53:07.685Z,11.50
2023-05-02T05:55:37.570Z,11.50
2023-05-02T05:58:05.445Z,11.60
2023-05-02T06:00:36.224Z,11.50
2023-05-02T06:03:04.378Z,11.40
2023-05-02T06:05:33.192Z,11.40
2023-05-02T06:08:00.197Z,11.40
2023-05-02T06:10:27.632Z,11.40
2023-05-02T06:12:54.900Z,11.30
2023-05-02T06:15:26.719Z,11.30
2023-05-02T06:17:53.895Z,11.20
2023-05-02T06:20:20.928Z,11.20
2023-05-02T06:22:48.195Z,11.30
2023-05-02T06:25:15.169Z,11.30
2023-05-02T06:27:42.220Z,11.30
2023-05-02T06:30:09.277Z,11.40
2023-05-02T06:32:36.209Z,11.40
2023-05-02T06:35:03.165Z,11.40
2023-05-02T06:37:33.549Z,11.40
2023-05-02T06:40:00.957Z,11.50
2023-05-02T06:42:28.038Z,11.50
2023-05-02T06:44:55.035Z,11.50
2023-05-02T06:47:22.498Z,11.50
2023-05-02T06:49:49.520Z,11.50
2023-05-02T06:52:16.488Z,11.60
2023-05-02T06:54:43.437Z,11.50
2023-05-02T06:57:11.232Z,11.50
2023-05-02T06:59:38.168Z,11.60
2023-05-02T07:02:05.684Z,11.60
2023-05-02T07:04:32.746Z,11.60
2023-05-02T07:06:59.600Z,11.70
2023-05-02T07:09:26.523Z,11.80
2023-05-02T07:11:53.353Z,11.80
2023-05-02T07:14:20.343Z,11.80
2023-05-02T07:16:47.334Z,11.80
2023-05-02T07:19:14.299Z,11.90
2023-05-02T07:21:41.176Z,11.80
2023-05-02T07:24:08.107Z,11.80
2023-05-02T07:26:35.057Z,11.80
2023-05-02T07:29:01.973Z,11.90
2023-05-02T07:31:28.850Z,11.90
2023-05-02T07:33:55.870Z,11.80
2023-05-02T07:36:22.862Z,11.80
2023-05-02T07:38:49.932Z,11.80
2023-05-02T07:41:16.851Z,11.70
2023-05-02T07:43:43.774Z,11.70
2023-05-02T07:46:11.278Z,11.70
2023-05-02T07:48:38.331Z,11.70
2023-05-02T07:51:08.760Z,11.80
2023-05-02T07:53:35.715Z,11.80
2023-05-02T07:56:07.085Z,11.80
2023-05-02T07:58:35.249Z,11.80
2023-05-02T08:01:02.264Z,11.90
2023-05-02T08:03:29.998Z,11.90
2023-05-02T08:05:57.338Z,11.90
2023-05-02T08:08:24.206Z,11.90
2023-05-02T08:10:51.558Z,11.80
2023-05-02T08:13:18.592Z,11.90
2023-05-02T08:15:46.230Z,11.90
2023-05-02T08:18:13.218Z,11.90
2023-05-02T08:20:40.979Z,11.90
2023-05-02T08:23:07.917Z,11.90
2023-05-02T08:25:34.881Z,11.90
2023-05-02T08:28:01.752Z,12.00
2023-05-02T08:30:28.696Z,12.10
2023-05-02T08:32:55.667Z,12.30
2023-05-02T08:35:22.545Z,12.40
2023-05-02T08:37:49.617Z,12.40
2023-05-02T08:40:22.133Z,12.40
2023-05-02T08:42:57.563Z,12.40
2023-05-02T08:45:24.464Z,12.50
2023-05-02T08:47:51.395Z,12.60
2023-05-02T08:50:19.053Z,12.40
2023-05-02T08:52:46.278Z,12.50
2023-05-02T08:55:13.187Z,12.50
2023-05-02T08:57:40.083Z,12.50
2023-05-02T09:00:08.258Z,12.40
2023-05-02T09:02:35.222Z,12.50
2023-05-02T09:05:03.734Z,12.50
2023-05-02T09:07:30.700Z,12.60
2023-05-02T09:09:57.564Z,12.80
2023-05-02T09:12:25.536Z,12.80
2023-05-02T09:15:09.342Z,12.80
2023-05-02T09:17:40.255Z,12.80
2023-05-02T09:20:07.615Z,12.70
2023-05-02T09:22:34.832Z,12.70
2023-05-02T09:25:01.900Z,12.70
2023-05-02T09:27:29.108Z,12.80
2023-05-02T09:30:16.238Z,12.80
2023-05-02T09:32:46.619Z,12.90
2023-05-02T09:35:13.969Z,12.90
2023-05-02T09:37:40.865Z,12.90
2023-05-02T09:40:08.098Z,13.20
2023-05-02T09:42:35.084Z,13.10
2023-05-02T09:45:02.222Z,13.30
2023-05-02T09:47:29.317Z,13.40
2023-05-02T09:49:56.255Z,13.40
2023-05-02T09:52:23.252Z,13.50
2023-05-02T09:54:53.476Z,13.70
2023-05-02T09:57:20.791Z,13.80
2023-05-02T09:59:57.334Z,14.10
2023-05-02T10:02:24.884Z,13.90
2023-05-02T10:04:51.992Z,13.90
2023-05-02T10:07:18.877Z,14.10
2023-05-02T10:09:45.918Z,14.20
2023-05-02T10:12:14.513Z,14.20
2023-05-02T10:14:44.347Z,14.20
2023-05-02T10:17:15.996Z,14.50
2023-05-02T10:19:50.610Z,14.60
2023-05-02T10:22:18.838Z,14.50
2023-05-02T10:24:46.948Z,14.70
2023-05-02T10:27:13.879Z,14.60
2023-05-02T10:29:41.241Z,14.90
2023-05-02T10:32:08.221Z,14.90
2023-05-02T10:34:36.624Z,15.20
2023-05-02T10:37:03.704Z,15.40
2023-05-02T10:39:30.552Z,15.30
2023-05-02T10:41:58.751Z,15.40
2023-05-02T10:44:38.937Z,15.90
2023-05-02T10:47:18.627Z,15.70
2023-05-02T10:49:52.614Z,15.40
2023-05-02T10:52:26.313Z,15.50
2023-05-02T10:54:53.666Z,15.30
2023-05-02T10:57:20.577Z,15.50
2023-05-02T10:59:47.713Z,15.30
2023-05-02T11:02:24.263Z,15.20
2023-05-02T11:05:05.139Z,15.20
2023-05-02T11:07:32.986Z,15.30
2023-05-02T11:10:18.300Z,15.30
2023-05-02T11:12:46.632Z,15.40
2023-05-02T11:15:13.909Z,15.60
2023-05-02T11:18:00.343Z,15.60
2023-05-02T11:20:27.480Z,15.50
2023-05-02T11:22:54.864Z,15.60
2023-05-02T11:25:31.410Z,15.20
2023-05-02T11:27:58.344Z,15.40
2023-05-02T11:30:41.080Z,15.50
2023-05-02T11:33:08.567Z,15.40
2023-05-02T11:35:36.076Z,15.40
2023-05-02T11:38:04.117Z,15.60
2023-05-02T11:40:31.509Z,15.70
2023-05-02T11:42:58.997Z,15.80
2023-05-02T11:45:38.094Z,15.80
2023-05-02T11:48:05.770Z,15.80
2023-05-02T11:50:33.555Z,16.00
2023-05-02T11:53:00.477Z,15.90
2023-05-02T11:55:27.403Z,15.80
2023-05-02T11:57:54.348Z,16.00
2023-05-02T12:00:21.818Z,15.90
2023-05-02T12:02:49.177Z,16.00
2023-05-02T12:05:16.783Z,16.10
2023-05-02T12:07:47.462Z,16.10
2023-05-02T12:10:14.621Z,16.20
2023-05-02T12:12:43.023Z,16.10
2023-05-02T12:15:10.725Z,16.20
2023-05-02T12:17:38.171Z,16.40
2023-05-02T12:20:05.607Z,16.70
2023-05-02T12:22:32.458Z,16.50
2023-05-02T12:24:59.562Z,16.30
2023-05-02T12:27:27.484Z,16.10
2023-05-02T12:29:55.109Z,16.20
2023-05-02T12:32:35.012Z,16.30
2023-05-02T12:35:02.680Z,16.40
2023-05-02T12:37:29.627Z,16.50
2023-05-02T12:39:57.006Z,16.60
2023-05-02T12:42:24.830Z,16.40
2023-05-02T12:44:55.365Z,16.40
2023-05-02T12:47:25.360Z,16.20
2023-05-02T12:49:53.242Z,16.40
2023-05-02T12:52:20.760Z,16.40
2023-05-02T12:54:47.615Z,16.40
2023-05-02T12:57:24.611Z,16.20
2023-05-02T12:59:52.208Z,15.90
2023-05-02T13:02:19.305Z,16.00
2023-05-02T13:04:46.255Z,16.20
2023-05-02T13:07:13.149Z,16.40
2023-05-02T13:09:40.070Z,16.40
2023-05-02T13:12:07.103Z,16.60
2023-05-02T13:14:34.131Z,16.50
2023-05-02T13:17:01.087Z,16.50
2023-05-02T13:19:31.462Z,16.80
2023-05-02T13:21:58.514Z,17.00
2023-05-02T13:24:25.502Z,17.20
2023-05-02T13:26:52.387Z,17.20
2023-05-02T13:29:19.231Z,16.90
2023-05-02T13:31:46.326Z,16.60
2023-05-02T13:34:13.191Z,16.70
2023-05-02T13:36:46.397Z,16.70
2023-05-02T13:39:14.138Z,16.40
2023-05-02T13:41:41.602Z,16.60
2023-05-02T13:44:09.608Z,16.80
2023-05-02T13:46:38.067Z,16.80
2023-05-02T13:49:05.142Z,16.60
2023-05-02T13:51:32.321Z,16.60
2023-05-02T13:53:59.399Z,16.60
2023-05-02T13:56:26.349Z,16.60
2023-05-02T13:58:53.245Z,16.60
2023-05-02T14:01:20.190Z,16.60
2023-05-02T14:03:47.321Z,16.50
2023-05-02T14:06:14.357Z,16.50
2023-05-02T14:08:41.362Z,16.70
2023-05-02T14:11:08.276Z,16.60
2023-05-02T14:13:35.171Z,16.70
2023-05-02T14:16:02.037Z,16.60
2023-05-02T14:18:28.953Z,16.50
2023-05-02T14:21:00.093Z,16.30
2023-05-02T14:23:28.500Z,16.60
2023-05-02T14:25:55.803Z,16.80
2023-05-02T14:28:22.813Z,16.90
2023-05-02T14:30:49.786Z,17.00
2023-05-02T14:33:16.737Z,17.00
2023-05-02T14:35:43.685Z,16.90
2023-05-02T14:38:10.547Z,16.80
2023-05-02T14:40:38.319Z,16.60
2023-05-02T14:43:05.420Z,16.30
2023-05-02T14:45:32.487Z,16.20
2023-05-02T14:47:59.450Z,15.90
2023-05-02T14:50:26.658Z,16.00
2023-05-02T14:52:53.590Z,16.30
2023-05-02T14:55:20.472Z,16.20
2023-05-02T14:57:47.363Z,16.20
2023-05-02T15:00:14.914Z,16.20
2023-05-02T15:02:42.139Z,16.20
2023-05-02T15:05:12.513Z,16.40
2023-05-02T15:07:39.905Z,16.60
2023-05-02T15:10:07.183Z,16.60
2023-05-02T15:12:34.249Z,16.50
2023-05-02T15:15:01.253Z,16.50
2023-05-02T15:17:28.121Z,16.50
2023-05-02T15:19:57.007Z,16.50
2023-05-02T15:22:26.205Z,16.70
2023-05-02T15:24:53.133Z,16.70
2023-05-02T15:27:20.115Z,16.70
2023-05-02T15:29:47.092Z,16.60
2023-05-02T15:32:14.134Z,16.40
2023-05-02T15:34:41.110Z,16.50
2023-05-02T15:37:08.280Z,16.30
2023-05-02T15:39:35.225Z,16.00
2023-05-02T15:42:05.160Z,15.80
2023-05-02T15:44:36.279Z,15.70
2023-05-02T15:47:03.474Z,15.80
2023-05-02T15:49:33.534Z,15.70
2023-05-02T15:52:01.778Z,15.60
2023-05-02T15:54:28.781Z,15.70
2023-05-02T15:56:55.692Z,15.90
2023-05-02T15:59:22.521Z,16.20
2023-05-02T16:01:49.498Z,16.10
2023-05-02T16:04:16.623Z,16.10
2023-05-02T16:06:43.579Z,16.00
2023-05-02T16:09:10.881Z,15.80
2023-05-02T16:11:37.730Z,15.50
2023-05-02T16:14:04.733Z,15.40
2023-05-02T16:16:32.033Z,15.20
2023-05-02T16:18:59.038Z,15.10
2023-05-02T16:21:25.962Z,15.20
2023-05-02T16:23:53.156Z,15.20
2023-05-02T16:26:20.998Z,15.20
2023-05-02T16:28:48.077Z,15.20
2023-05-02T16:31:15.285Z,15.10
2023-05-02T16:33:43.074Z,14.90
2023-05-02T16:36:10.413Z,14.70
2023-05-02T16:38:37.371Z,14.70
2023-05-02T16:41:05.179Z,14.70
2023-05-02T16:43:32.112Z,14.60
2023-05-02T16:46:02.361Z,14.60
2023-05-02T16:48:29.395Z,14.60
2023-05-02T16:50:57.146Z,14.60
2023-05-02T16:53:24.547Z,14.60
2023-05-02T16:55:51.409Z,14.50
2023-05-02T16:58:18.619Z,14.40
2023-05-02T17:00:45.668Z,14.40
2023-05-02T17:03:12.904Z,14.20
2023-05-02T17:05:39.843Z,14.20
2023-05-02T17:08:08.147Z,14.10
2023-05-02T17:10:36.006Z,13.90
2023-05-02T17:13:03.795Z,13.90
2023-05-02T17:15:30.684Z,13.80
2023-05-02T17:17:57.560Z,13.90
2023-05-02T17:20:24.574Z,14.00
2023-05-02T17:22:51.476Z,14.10
2023-05-02T17:25:18.423Z,14.10
2023-05-02T17:27:45.326Z,14.10
2023-05-02T17:30:13.771Z,14.00
2023-05-02T17:32:40.666Z,13.90
2023-05-02T17:35:07.801Z,13.80
2023-05-02T17:37:34.726Z,13.60
2023-05-02T17:40:02.501Z,13.50
2023-05-02T17:42:29.662Z,13.40
2023-05-02T17:44:56.662Z,13.30
2023-05-02T17:47:23.525Z,13.20
2023-05-02T17:49:51.465Z,13.10
2023-05-02T17:52:18.413Z,13.20
2023-05-02T17:54:45.503Z,13.10
2023-05-02T17:57:14.696Z,13.00
2023-05-02T17:59:41.759Z,13.00
2023-05-02T18:02:10.261Z,13.00
2023-05-02T18:04:37.457Z,13.00
2023-05-02T18:07:06.199Z,13.00
2023-05-02T18:09:33.212Z,13.00
2023-05-02T18:12:00.747Z,13.00
2023-05-02T18:14:27.599Z,12.90
2023-05-02T18:16:54.507Z,12.90
2023-05-02T18:19:23.130Z,12.80
2023-05-02T18:21:50.026Z,12.80
2023-05-02T18:24:16.989Z,12.80
2023-05-02T18:26:44.122Z,12.80
2023-05-02T18:29:10.988Z,12.80
2023-05-02T18:31:40.563Z,12.60
2023-05-02T18:34:07.799Z,12.40
2023-05-02T18:36:34.826Z,12.50
2023-05-02T18:39:01.800Z,12.40
2023-05-02T18:41:28.751Z,12.30
2023-05-02T18:43:57.073Z,12.20
2023-05-02T18:46:25.727Z,12.00
2023-05-02T18:48:52.594Z,12.00
2023-05-02T18:51:19.505Z,12.00
2023-05-02T18:53:46.398Z,11.90
2023-05-02T18:56:14.615Z,11.80
2023-05-02T18:58:42.195Z,11.70
2023-05-02T19:01:15.501Z,11.60
2023-05-02T19:03:46.064Z,11.60
2023-05-02T19:06:13.628Z,11.50
2023-05-02T19:08:40.594Z,11.50
2023-05-02T19:11:07.685Z,11.60
2023-05-02T19:13:34.736Z,11.50
2023-05-02T19:16:01.712Z,11.50
2023-05-02T19:18:28.606Z,11.50
2023-05-02T19:20:55.575Z,11.40
2023-05-02T19:23:23.262Z,11.30
2023-05-02T19:25:50.303Z,11.30
2023-05-02T19:28:17.476Z,11.20
2023-05-02T19:30:44.551Z,11.10
2023-05-02T19:33:11.919Z,11.10
2023-05-02T19:35:38.945Z,11.10
2023-05-02T19:38:05.844Z,11.10
2023-05-02T19:40:32.998Z,11.00
2023-05-02T19:42:59.860Z,10.80
2023-05-02T19:45:27.019Z,10.80
2023-05-02T19:47:53.886Z,10.80
2023-05-02T19:50:20.786Z,10.80
2023-05-02T19:52:47.668Z,10.80
2023-05-02T19:55:16.296Z,10.70
2023-05-02T19:57:44.755Z,10.60
2023-05-02T20:00:13.043Z,10.60
2023-05-02T20:02:40.133Z,10.60
2023-05-02T20:05:07.413Z,10.50
2023-05-02T20:07:34.269Z,10.40
2023-05-02T20:10:01.232Z,10.40
2023-05-02T20:12:28.374Z,10.40
2023-05-02T20:14:55.601Z,10.40
2023-05-02T20:17:22.566Z,10.40
2023-05-02T20:19:49.491Z,10.50
2023-05-02T20:22:16.393Z,10.50
2023-05-02T20:24:43.258Z,10.40
2023-05-02T20:27:10.142Z,10.40
2023-05-02T20:29:37.056Z,10.30
2023-05-02T20:32:04.052Z,10.10
2023-05-02T20:34:30.916Z,10.10
2023-05-02T20:36:58.642Z,10.20
2023-05-02T20:39:26.025Z,10.20
2023-05-02T20:41:53.030Z,10.10
2023-05-02T20:44:22.595Z,10.10
2023-05-02T20:46:51.661Z,10.10
2023-05-02T20:49:18.572Z,10.00
2023-05-02T20:51:45.536Z,10.00
2023-05-02T20:54:12.406Z,10.00
2023-05-02T20:56:39.328Z,9.90
2023-05-02T20:59:06.340Z,9.80
2023-05-02T21:01:33.616Z,9.80
2023-05-02T21:04:01.102Z,9.80
2023-05-02T21:06:28.149Z,9.80
2023-05-02T21:08:56.746Z,9.70
2023-05-02T21:11:23.711Z,9.80
2023-05-02T21:13:50.660Z,9.70
2023-05-02T21:16:17.998Z,9.70
2023-05-02T21:18:45.443Z,9.80
2023-05-02T21:21:12.328Z,9.80
2023-05-02T21:23:39.275Z,9.80
2023-05-02T21:26:06.153Z,9.80
2023-05-02T21:28:33.042Z,9.70
2023-05-02T21:31:01.236Z,9.60
2023-05-02T21:33:28.123Z,9.60
2023-05-02T21:35:55.708Z,9.60
2023-05-02T21:38:22.636Z,9.50
2023-05-02T21:40:49.480Z,9.50
2023-05-02T21:43:16.510Z,9.50
2023-05-02T21:45:45.476Z,9.40
2023-05-02T21:48:13.046Z,9.40
2023-05-02T21:50:40.608Z,9.30
2023-05-02T21:53:07.528Z,9.20
2023-05-02T21:55:36.716Z,9.20
2023-05-02T21:58:04.452Z,9.30
2023-05-02T22:00:32.649Z,9.20
2023-05-02T22:03:01.736Z,9.20
2023-05-02T22:05:28.668Z,9.20
2023-05-02T22:07:56.406Z,9.20
2023-05-02T22:10:23.356Z,9.20
2023-05-02T22:12:50.289Z,9.20
2023-05-02T22:15:17.159Z,9.20
2023-05-02T22:17:46.323Z,9.10
2023-05-02T22:20:13.285Z,9.10
2023-05-02T22:22:40.681Z,9.00
2023-05-02T22:25:08.107Z,9.00
2023-05-02T22:27:35.352Z,8.90
2023-05-02T22:30:02.537Z,8.90
2023-05-02T22:32:29.696Z,8.90
2023-05-02T22:34:56.665Z,8.90
2023-05-02T22:37:23.529Z,8.90
2023-05-02T22:39:51.256Z,8.90
2023-05-02T22:42:18.395Z,8.90
2023-05-02T22:44:54.167Z,8.90
2023-05-02T22:47:21.950Z,8.90
2023-05-02T22:49:49.440Z,8.80
2023-05-02T22:52:18.498Z,8.80
2023-05-02T22:54:45.451Z,8.80
2023-05-02T22:57:12.366Z,8.80
2023-05-02T22:59:39.335Z,8.70
2023-05-02T23:02:06.280Z,8.70
2023-05-02T23:04:33.645Z,8.60
2023-05-02T23:07:00.490Z,8.50
2023-05-02T23:09:27.405Z,8.50
2023-05-02T23:11:54.260Z,8.50
2023-05-02T23:14:23.081Z,8.50
2023-05-02T23:16:50.146Z,8.40
2023-05-02T23:19:17.301Z,8.50
2023-05-02T23:21:44.202Z,8.40
2023-05-02T23:24:11.254Z,8.40
2023-05-02T23:26:38.227Z,8.40
2023-05-02T23:29:06.494Z,8.30
2023-05-02T23:31:33.364Z,8.30
2023-05-02T23:34:00.307Z,8.30
2023-05-02T23:36:27.265Z,8.30
2023-05-02T23:38:54.166Z,8.30
2023-05-02T23:41:21.607Z,8.20
2023-05-02T23:43:48.468Z,8.20
2023-05-02T23:46:15.394Z,8.10
2023-05-02T23:48:42.316Z,8.10
2023-05-02T23:51:09.194Z,8.00
2023-05-02T23:53:36.379Z,8.00
2023-05-02T23:56:03.302Z,7.90
2023-05-02T23:58:30.309Z,7.90
